sensor_id;sensor_type;location;lat;lon;timestamp;pressure;altitude;pressure_sealevel;temperature;humidity
40490;BME280;26196;52.302;10.572;2023-10-08T00:02:21;100998.28;;;18.42;60.08
40490;BME280;26196;52.302;10.572;2023-10-08T00:06:22;101023.91;;;18.59;59.71
40490;BME280;26196;52.302;10.572;2023-10-08T00:11:00;101049.88;;;18.70;59.82
40490;BME280;26196;52.302;10.572;2023-10-08T00:15:10;101044.97;;;18.62;59.93
40490;BME280;26196;52.302;10.572;2023-10-08T00:19:10;101068.50;;;18.68;60.10
40490;BME280;26196;52.302;10.572;2023-10-08T00:23:13;101083.56;;;18.68;59.64
40490;BME280;26196;52.302;10.572;2023-10-08T00:27:47;101093.16;;;18.70;59.51
40490;BME280;26196;52.302;10.572;2023-10-08T00:31:51;101068.50;;;18.51;59.37
40490;BME280;26196;52.302;10.572;2023-10-08T00:35:51;101028.84;;;18.49;59.32
40490;BME280;26196;52.302;10.572;2023-10-08T00:39:52;101076.69;;;18.64;59.13
40490;BME280;26196;52.302;10.572;2023-10-08T00:43:52;101085.75;;;18.59;59.39
40490;BME280;26196;52.302;10.572;2023-10-08T00:47:54;101075.69;;;18.49;58.18
40490;BME280;26196;52.302;10.572;2023-10-08T00:51:57;101113.28;;;18.57;58.67
40490;BME280;26196;52.302;10.572;2023-10-08T00:56:19;101078.41;;;18.30;58.35
40490;BME280;26196;52.302;10.572;2023-10-08T01:00:20;101071.31;;;18.13;58.59
40490;BME280;26196;52.302;10.572;2023-10-08T01:04:27;101139.38;;;18.47;57.92
40490;BME280;26196;52.302;10.572;2023-10-08T01:08:27;101151.00;;;18.45;58.04
40490;BME280;26196;52.302;10.572;2023-10-08T01:12:37;101175.16;;;18.39;57.89
40490;BME280;26196;52.302;10.572;2023-10-08T01:16:50;101193.31;;;18.29;57.78
40490;BME280;26196;52.302;10.572;2023-10-08T01:20:50;101216.63;;;18.40;58.07
40490;BME280;26196;52.302;10.572;2023-10-08T01:25:26;101229.03;;;18.39;58.37
40490;BME280;26196;52.302;10.572;2023-10-08T01:29:29;101214.81;;;18.23;58.34
40490;BME280;26196;52.302;10.572;2023-10-08T01:33:31;101212.06;;;18.24;58.19
40490;BME280;26196;52.302;10.572;2023-10-08T01:37:37;101250.19;;;18.41;58.12
40490;BME280;26196;52.302;10.572;2023-10-08T01:41:40;101171.72;;;18.00;57.86
40490;BME280;26196;52.302;10.572;2023-10-08T01:46:17;101254.91;;;18.34;58.04
40490;BME280;26196;52.302;10.572;2023-10-08T01:50:21;101242.06;;;18.25;57.51
40490;BME280;26196;52.302;10.572;2023-10-08T01:54:22;101257.13;;;18.24;58.00
40490;BME280;26196;52.302;10.572;2023-10-08T01:58:26;101266.66;;;18.28;58.50
40490;BME280;26196;52.302;10.572;2023-10-08T02:02:26;101269.16;;;18.31;57.83
40490;BME280;26196;52.302;10.572;2023-10-08T02:07:04;101264.00;;;18.28;57.68
40490;BME280;26196;52.302;10.572;2023-10-08T02:11:07;101262.56;;;18.21;57.02
40490;BME280;26196;52.302;10.572;2023-10-08T02:15:09;101289.66;;;18.28;57.30
40490;BME280;26196;52.302;10.572;2023-10-08T02:19:11;101233.06;;;18.10;56.38
40490;BME280;26196;52.302;10.572;2023-10-08T02:23:12;101255.06;;;18.12;56.99
40490;BME280;26196;52.302;10.572;2023-10-08T02:27:12;101272.16;;;18.24;56.67
40490;BME280;26196;52.302;10.572;2023-10-08T02:31:15;101289.84;;;18.23;56.36
40490;BME280;26196;52.302;10.572;2023-10-08T02:35:15;101248.81;;;17.94;56.34
40490;BME280;26196;52.302;10.572;2023-10-08T02:39:16;101248.09;;;17.90;55.74
40490;BME280;26196;52.302;10.572;2023-10-08T02:43:25;101226.75;;;17.93;56.02
40490;BME280;26196;52.302;10.572;2023-10-08T02:47:26;101255.06;;;18.12;56.23
40490;BME280;26196;52.302;10.572;2023-10-08T02:51:26;101248.47;;;18.02;56.20
40490;BME280;26196;52.302;10.572;2023-10-08T02:55:27;101184.19;;;17.59;55.92
40490;BME280;26196;52.302;10.572;2023-10-08T02:59:36;101243.03;;;18.05;56.10
40490;BME280;26196;52.302;10.572;2023-10-08T03:04:12;101253.25;;;18.12;55.91
40490;BME280;26196;52.302;10.572;2023-10-08T03:08:19;101242.22;;;18.03;55.77
40490;BME280;26196;52.302;10.572;2023-10-08T03:12:20;101250.47;;;17.97;55.72
40490;BME280;26196;52.302;10.572;2023-10-08T03:16:25;101269.13;;;17.93;55.51
40490;BME280;26196;52.302;10.572;2023-10-08T03:20:34;101240.94;;;17.72;55.66
40490;BME280;26196;52.302;10.572;2023-10-08T03:24:45;101294.75;;;17.93;55.77
40490;BME280;26196;52.302;10.572;2023-10-08T03:28:48;101325.06;;;18.06;55.40
40490;BME280;26196;52.302;10.572;2023-10-08T03:33:27;101318.13;;;18.04;55.49
40490;BME280;26196;52.302;10.572;2023-10-08T03:37:28;101320.91;;;18.01;55.43
40490;BME280;26196;52.302;10.572;2023-10-08T03:41:43;101303.72;;;17.90;55.45
40490;BME280;26196;52.302;10.572;2023-10-08T03:46:00;101317.84;;;17.91;55.44
40490;BME280;26196;52.302;10.572;2023-10-08T03:50:06;101312.09;;;17.81;55.44
40490;BME280;26196;52.302;10.572;2023-10-08T03:54:09;101288.09;;;17.64;55.04
40490;BME280;26196;52.302;10.572;2023-10-08T03:58:09;101255.09;;;17.52;55.22
40490;BME280;26196;52.302;10.572;2023-10-08T04:02:14;101331.94;;;17.91;54.87
40490;BME280;26196;52.302;10.572;2023-10-08T04:10:55;101319.72;;;17.67;55.29
40490;BME280;26196;52.302;10.572;2023-10-08T04:15:27;101345.50;;;17.84;55.20
40490;BME280;26196;52.302;10.572;2023-10-08T04:19:29;101314.94;;;17.75;54.99
40490;BME280;26196;52.302;10.572;2023-10-08T04:24:03;101363.84;;;17.88;54.86
40490;BME280;26196;52.302;10.572;2023-10-08T04:28:05;101368.41;;;17.85;55.04
40490;BME280;26196;52.302;10.572;2023-10-08T04:32:06;101357.59;;;17.69;54.98
40490;BME280;26196;52.302;10.572;2023-10-08T04:36:12;101400.28;;;17.83;54.97
40490;BME280;26196;52.302;10.572;2023-10-08T04:40:19;101398.53;;;17.82;54.86
40490;BME280;26196;52.302;10.572;2023-10-08T04:44:24;101366.47;;;17.68;54.78
40490;BME280;26196;52.302;10.572;2023-10-08T04:48:26;101376.53;;;17.80;54.83
40490;BME280;26196;52.302;10.572;2023-10-08T04:52:29;101365.72;;;17.64;54.99
40490;BME280;26196;52.302;10.572;2023-10-08T04:56:30;101389.03;;;17.77;54.83
40490;BME280;26196;52.302;10.572;2023-10-08T05:00:33;101338.25;;;17.46;54.81
40490;BME280;26196;52.302;10.572;2023-10-08T05:04:53;101273.31;;;16.97;54.83
40490;BME280;26196;52.302;10.572;2023-10-08T05:09:16;101358.19;;;17.35;54.53
40490;BME280;26196;52.302;10.572;2023-10-08T05:13:19;101412.66;;;17.61;54.77
40490;BME280;26196;52.302;10.572;2023-10-08T05:17:30;101415.72;;;17.72;54.67
40490;BME280;26196;52.302;10.572;2023-10-08T05:22:07;101417.44;;;17.73;54.64
40490;BME280;26196;52.302;10.572;2023-10-08T05:26:20;101407.38;;;17.61;54.85
40490;BME280;26196;52.302;10.572;2023-10-08T05:30:30;101413.59;;;17.60;54.65
40490;BME280;26196;52.302;10.572;2023-10-08T05:39:27;101435.38;;;17.66;54.61
40490;BME280;26196;52.302;10.572;2023-10-08T05:43:40;101435.16;;;17.50;54.74
40490;BME280;26196;52.302;10.572;2023-10-08T05:47:40;101436.09;;;17.49;54.90
40490;BME280;26196;52.302;10.572;2023-10-08T05:52:01;101443.63;;;17.59;54.71
40490;BME280;26196;52.302;10.572;2023-10-08T05:56:04;101458.47;;;17.63;54.46
40490;BME280;26196;52.302;10.572;2023-10-08T06:00:41;101465.59;;;17.61;54.84
40490;BME280;26196;52.302;10.572;2023-10-08T06:05:19;101483.34;;;17.59;54.90
40490;BME280;26196;52.302;10.572;2023-10-08T06:09:24;101485.25;;;17.55;54.79
40490;BME280;26196;52.302;10.572;2023-10-08T06:13:35;101459.94;;;17.48;54.72
40490;BME280;26196;52.302;10.572;2023-10-08T06:18:11;101449.53;;;17.43;55.08
40490;BME280;26196;52.302;10.572;2023-10-08T06:22:13;101502.97;;;17.53;54.83
40490;BME280;26196;52.302;10.572;2023-10-08T06:26:13;101522.13;;;17.60;54.61
40490;BME280;26196;52.302;10.572;2023-10-08T06:34:55;101499.53;;;17.73;58.15
40490;BME280;26196;52.302;10.572;2023-10-08T06:39:30;101529.56;;;17.72;55.66
40490;BME280;26196;52.302;10.572;2023-10-08T06:44:05;101536.16;;;17.62;55.36
40490;BME280;26196;52.302;10.572;2023-10-08T06:48:06;101520.78;;;17.49;55.55
40490;BME280;26196;52.302;10.572;2023-10-08T06:52:40;101554.81;;;17.59;55.74
40490;BME280;26196;52.302;10.572;2023-10-08T06:56:46;101547.00;;;17.56;55.50
40490;BME280;26196;52.302;10.572;2023-10-08T07:01:22;101557.59;;;17.56;55.62
40490;BME280;26196;52.302;10.572;2023-10-08T07:05:24;101554.38;;;17.47;55.28
40490;BME280;26196;52.302;10.572;2023-10-08T07:09:59;101582.41;;;17.53;55.57
40490;BME280;26196;52.302;10.572;2023-10-08T07:14:00;101603.78;;;17.70;59.47
40490;BME280;26196;52.302;10.572;2023-10-08T07:18:00;101576.75;;;17.62;56.92
40490;BME280;26196;52.302;10.572;2023-10-08T07:22:09;101582.34;;;17.55;56.57
40490;BME280;26196;52.302;10.572;2023-10-08T07:26:44;101590.22;;;17.56;56.22
40490;BME280;26196;52.302;10.572;2023-10-08T07:30:47;101560.88;;;17.39;56.30
40490;BME280;26196;52.302;10.572;2023-10-08T07:34:49;101578.34;;;17.44;56.44
40490;BME280;26196;52.302;10.572;2023-10-08T07:39:25;101586.84;;;17.53;56.23
40490;BME280;26196;52.302;10.572;2023-10-08T07:43:31;101600.06;;;17.53;56.42
40490;BME280;26196;52.302;10.572;2023-10-08T07:47:35;101585.47;;;17.42;56.44
40490;BME280;26196;52.302;10.572;2023-10-08T07:51:35;101576.72;;;17.40;56.55
40490;BME280;26196;52.302;10.572;2023-10-08T07:55:37;101549.28;;;17.19;56.46
40490;BME280;26196;52.302;10.572;2023-10-08T08:00:12;101601.91;;;17.50;56.50
40490;BME280;26196;52.302;10.572;2023-10-08T08:04:19;101602.38;;;17.38;56.86
40490;BME280;26196;52.302;10.572;2023-10-08T08:08:22;101596.59;;;17.28;56.89
40490;BME280;26196;52.302;10.572;2023-10-08T08:12:24;101606.63;;;17.42;57.20
40490;BME280;26196;52.302;10.572;2023-10-08T08:16:25;101607.53;;;17.41;57.15
40490;BME280;26196;52.302;10.572;2023-10-08T08:25:02;101622.50;;;17.42;57.72
40490;BME280;26196;52.302;10.572;2023-10-08T08:29:37;101628.38;;;17.50;57.77
40490;BME280;26196;52.302;10.572;2023-10-08T08:33:48;101608.53;;;17.39;57.43
40490;BME280;26196;52.302;10.572;2023-10-08T08:38:00;101633.84;;;17.46;57.96
40490;BME280;26196;52.302;10.572;2023-10-08T08:42:00;101649.69;;;17.47;57.93
40490;BME280;26196;52.302;10.572;2023-10-08T08:46:04;101645.94;;;17.53;57.99
40490;BME280;26196;52.302;10.572;2023-10-08T08:50:10;101604.56;;;17.27;58.02
40490;BME280;26196;52.302;10.572;2023-10-08T08:54:45;101651.25;;;17.52;58.27
40490;BME280;26196;52.302;10.572;2023-10-08T08:58:46;101649.03;;;17.41;58.77
40490;BME280;26196;52.302;10.572;2023-10-08T09:02:47;101667.97;;;17.54;59.03
40490;BME280;26196;52.302;10.572;2023-10-08T09:07:23;101674.19;;;17.53;59.08
40490;BME280;26196;52.302;10.572;2023-10-08T09:11:23;101665.59;;;17.46;59.54
40490;BME280;26196;52.302;10.572;2023-10-08T09:25:20;101704.13;;;17.55;59.23
40490;BME280;26196;52.302;10.572;2023-10-08T09:29:50;101710.31;;;17.77;60.18
40490;BME280;26196;52.302;10.572;2023-10-08T09:38:25;101697.19;;;17.74;59.66
40490;BME280;26196;52.302;10.572;2023-10-08T09:42:30;101695.41;;;17.75;58.53
40490;BME280;26196;52.302;10.572;2023-10-08T09:46:31;101716.28;;;17.84;57.82
40490;BME280;26196;52.302;10.572;2023-10-08T09:55:11;101706.97;;;17.72;56.89
40490;BME280;26196;52.302;10.572;2023-10-08T09:59:11;101730.56;;;17.80;56.46
40490;BME280;26196;52.302;10.572;2023-10-08T10:03:15;101726.13;;;17.80;56.71
40490;BME280;26196;52.302;10.572;2023-10-08T10:07:50;101726.28;;;17.76;56.83
40490;BME280;26196;52.302;10.572;2023-10-08T10:11:55;101712.28;;;17.72;57.08
40490;BME280;26196;52.302;10.572;2023-10-08T10:16:31;101728.00;;;17.77;57.43
40490;BME280;26196;52.302;10.572;2023-10-08T10:25:43;101734.31;;;17.72;58.28
40490;BME280;26196;52.302;10.572;2023-10-08T10:30:19;101734.38;;;17.71;57.95
40490;BME280;26196;52.302;10.572;2023-10-08T10:34:22;101734.38;;;17.71;58.34
40490;BME280;26196;52.302;10.572;2023-10-08T10:38:23;101725.88;;;17.63;58.20
40490;BME280;26196;52.302;10.572;2023-10-08T10:42:27;101738.03;;;17.68;58.13
40490;BME280;26196;52.302;10.572;2023-10-08T10:47:02;101745.03;;;17.69;58.43
40490;BME280;26196;52.302;10.572;2023-10-08T10:51:19;101717.44;;;17.52;58.20
40490;BME280;26196;52.302;10.572;2023-10-08T10:55:53;101738.06;;;17.67;58.39
40490;BME280;26196;52.302;10.572;2023-10-08T11:00:28;101738.63;;;17.75;58.25
40490;BME280;26196;52.302;10.572;2023-10-08T11:09:44;101729.38;;;17.63;58.29
40490;BME280;26196;52.302;10.572;2023-10-08T11:13:45;101751.09;;;17.73;57.91
40490;BME280;26196;52.302;10.572;2023-10-08T11:18:20;101752.94;;;17.71;54.91
40490;BME280;26196;52.302;10.572;2023-10-08T11:22:21;101745.38;;;17.60;53.05
40490;BME280;26196;52.302;10.572;2023-10-08T11:26:23;101745.97;;;17.68;53.71
40490;BME280;26196;52.302;10.572;2023-10-08T11:30:33;101726.44;;;17.71;55.09
40490;BME280;26196;52.302;10.572;2023-10-08T11:35:13;101728.84;;;17.77;55.26
40490;BME280;26196;52.302;10.572;2023-10-08T11:39:20;101709.06;;;17.64;55.65
40490;BME280;26196;52.302;10.572;2023-10-08T11:43:24;101706.94;;;17.74;54.83
40490;BME280;26196;52.302;10.572;2023-10-08T11:47:58;101704.88;;;17.82;55.25
40490;BME280;26196;52.302;10.572;2023-10-08T11:52:06;101693.72;;;17.72;55.05
40490;BME280;26196;52.302;10.572;2023-10-08T11:56:07;101723.41;;;17.82;55.74
40490;BME280;26196;52.302;10.572;2023-10-08T12:00:44;101734.75;;;17.85;55.58
40490;BME280;26196;52.302;10.572;2023-10-08T12:04:45;101628.50;;;17.47;54.52
40490;BME280;26196;52.302;10.572;2023-10-08T12:09:19;101673.84;;;17.85;54.54
40490;BME280;26196;52.302;10.572;2023-10-08T12:13:56;101701.25;;;17.84;55.47
40490;BME280;26196;52.302;10.572;2023-10-08T12:17:59;101718.84;;;17.85;55.83
40490;BME280;26196;52.302;10.572;2023-10-08T12:22:36;101728.44;;;17.89;55.67
40490;BME280;26196;52.302;10.572;2023-10-08T12:26:47;101742.53;;;17.90;56.10
40490;BME280;26196;52.302;10.572;2023-10-08T12:30:50;101732.78;;;17.90;56.58
40490;BME280;26196;52.302;10.572;2023-10-08T12:34:52;101716.84;;;17.92;56.61
40490;BME280;26196;52.302;10.572;2023-10-08T12:38:53;101702.63;;;17.95;57.51
40490;BME280;26196;52.302;10.572;2023-10-08T12:42:57;101697.06;;;18.01;57.40
40490;BME280;26196;52.302;10.572;2023-10-08T12:46:59;101666.88;;;17.83;56.95
40490;BME280;26196;52.302;10.572;2023-10-08T12:50:59;101695.50;;;17.97;55.94
40490;BME280;26196;52.302;10.572;2023-10-08T12:55:00;101696.22;;;18.00;56.04
40490;BME280;26196;52.302;10.572;2023-10-08T12:59:04;101695.22;;;18.03;56.38
40490;BME280;26196;52.302;10.572;2023-10-08T13:03:06;101674.66;;;17.87;55.94
40490;BME280;26196;52.302;10.572;2023-10-08T13:07:15;101674.53;;;17.90;55.61
40490;BME280;26196;52.302;10.572;2023-10-08T13:11:24;101664.59;;;17.96;55.64
40490;BME280;26196;52.302;10.572;2023-10-08T13:15:25;101635.72;;;17.89;55.03
40490;BME280;26196;52.302;10.572;2023-10-08T13:19:30;101605.88;;;17.86;53.95
40490;BME280;26196;52.302;10.572;2023-10-08T13:23:33;101632.69;;;17.99;53.41
40490;BME280;26196;52.302;10.572;2023-10-08T13:27:35;101629.34;;;17.93;53.50
40490;BME280;26196;52.302;10.572;2023-10-08T13:31:39;101641.84;;;17.91;54.19
40490;BME280;26196;52.302;10.572;2023-10-08T13:35:39;101646.19;;;17.92;51.00
40490;BME280;26196;52.302;10.572;2023-10-08T13:39:39;101656.78;;;17.92;52.44
40490;BME280;26196;52.302;10.572;2023-10-08T13:43:41;101663.78;;;17.93;53.60
40490;BME280;26196;52.302;10.572;2023-10-08T13:47:45;101657.75;;;17.90;52.89
40490;BME280;26196;52.302;10.572;2023-10-08T13:51:47;101653.72;;;17.81;53.69
40490;BME280;26196;52.302;10.572;2023-10-08T13:55:57;101668.44;;;17.88;52.82
40490;BME280;26196;52.302;10.572;2023-10-08T14:00:01;101673.16;;;17.80;53.32
40490;BME280;26196;52.302;10.572;2023-10-08T14:04:02;101683.66;;;17.83;53.14
40490;BME280;26196;52.302;10.572;2023-10-08T14:08:06;101659.59;;;17.88;53.21
40490;BME280;26196;52.302;10.572;2023-10-08T14:12:12;101649.31;;;17.80;52.69
40490;BME280;26196;52.302;10.572;2023-10-08T14:16:14;101677.13;;;17.92;52.44
40490;BME280;26196;52.302;10.572;2023-10-08T14:20:17;101666.53;;;17.92;51.78
40490;BME280;26196;52.302;10.572;2023-10-08T14:24:22;101664.03;;;17.87;53.00
40490;BME280;26196;52.302;10.572;2023-10-08T14:28:24;101660.94;;;18.00;53.41
40490;BME280;26196;52.302;10.572;2023-10-08T14:32:41;101663.69;;;17.97;52.22
40490;BME280;26196;52.302;10.572;2023-10-08T14:36:49;101660.13;;;17.98;52.38
40490;BME280;26196;52.302;10.572;2023-10-08T14:41:09;101670.72;;;17.98;52.11
40490;BME280;26196;52.302;10.572;2023-10-08T14:45:29;101681.44;;;17.95;53.48
40490;BME280;26196;52.302;10.572;2023-10-08T14:49:35;101670.97;;;17.91;52.82
40490;BME280;26196;52.302;10.572;2023-10-08T14:53:35;101648.25;;;17.86;52.91
40490;BME280;26196;52.302;10.572;2023-10-08T14:57:39;101666.41;;;17.95;54.31
40490;BME280;26196;52.302;10.572;2023-10-08T15:01:39;101660.25;;;17.95;53.28
40490;BME280;26196;52.302;10.572;2023-10-08T15:05:42;101670.84;;;17.95;53.95
40490;BME280;26196;52.302;10.572;2023-10-08T15:09:42;101666.44;;;17.93;51.57
40490;BME280;26196;52.302;10.572;2023-10-08T15:13:44;101661.28;;;17.90;51.28
40490;BME280;26196;52.302;10.572;2023-10-08T15:17:46;101663.69;;;17.97;51.96
40490;BME280;26196;52.302;10.572;2023-10-08T15:21:50;101667.25;;;17.96;52.45
40490;BME280;26196;52.302;10.572;2023-10-08T15:25:50;101668.88;;;18.00;53.52
40490;BME280;26196;52.302;10.572;2023-10-08T15:29:51;101670.59;;;18.01;53.59
40490;BME280;26196;52.302;10.572;2023-10-08T15:33:51;101668.88;;;18.00;53.72
40490;BME280;26196;52.302;10.572;2023-10-08T15:37:54;101679.09;;;18.09;54.47
40490;BME280;26196;52.302;10.572;2023-10-08T15:41:54;101663.56;;;18.00;54.37
40490;BME280;26196;52.302;10.572;2023-10-08T15:45:55;101669.59;;;18.03;54.69
40490;BME280;26196;52.302;10.572;2023-10-08T15:49:56;101679.91;;;18.11;54.61
40490;BME280;26196;52.302;10.572;2023-10-08T15:53:58;101671.94;;;18.11;54.67
40490;BME280;26196;52.302;10.572;2023-10-08T15:58:00;101654.34;;;18.10;54.89
40490;BME280;26196;52.302;10.572;2023-10-08T16:02:00;101644.03;;;18.02;55.11
40490;BME280;26196;52.302;10.572;2023-10-08T16:06:00;101647.97;;;18.14;55.52
40490;BME280;26196;52.302;10.572;2023-10-08T16:10:01;101652.38;;;18.15;55.13
40490;BME280;26196;52.302;10.572;2023-10-08T16:14:01;101634.00;;;18.10;55.48
40490;BME280;26196;52.302;10.572;2023-10-08T16:18:01;101655.81;;;18.17;55.93
40490;BME280;26196;52.302;10.572;2023-10-08T16:22:03;101648.06;;;18.12;55.89
40490;BME280;26196;52.302;10.572;2023-10-08T16:26:03;101636.59;;;18.12;56.18
40490;BME280;26196;52.302;10.572;2023-10-08T16:30:06;101641.75;;;18.15;55.67
40490;BME280;26196;52.302;10.572;2023-10-08T16:34:11;101644.22;;;18.20;55.75
40490;BME280;26196;52.302;10.572;2023-10-08T16:38:12;101631.03;;;18.18;55.26
40490;BME280;26196;52.302;10.572;2023-10-08T16:42:14;101640.81;;;18.16;55.27
40490;BME280;26196;52.302;10.572;2023-10-08T16:46:14;101615.41;;;18.12;55.21
40490;BME280;26196;52.302;10.572;2023-10-08T16:50:14;101626.66;;;18.17;55.58
40490;BME280;26196;52.302;10.572;2023-10-08T16:54:16;101611.75;;;18.14;55.36
40490;BME280;26196;52.302;10.572;2023-10-08T16:58:19;101626.00;;;18.12;54.93
40490;BME280;26196;52.302;10.572;2023-10-08T17:02:19;101620.56;;;18.15;55.51
40490;BME280;26196;52.302;10.572;2023-10-08T17:06:20;101617.91;;;18.15;55.90
40490;BME280;26196;52.302;10.572;2023-10-08T17:10:21;101588.47;;;18.01;56.11
40490;BME280;26196;52.302;10.572;2023-10-08T17:14:22;101604.84;;;18.10;56.01
40490;BME280;26196;52.302;10.572;2023-10-08T17:18:22;101593.25;;;18.13;56.79
40490;BME280;26196;52.302;10.572;2023-10-08T17:22:25;101589.50;;;18.19;57.38
40490;BME280;26196;52.302;10.572;2023-10-08T17:26:25;101553.50;;;18.13;57.53
40490;BME280;26196;52.302;10.572;2023-10-08T17:30:26;101596.09;;;18.08;57.81
40490;BME280;26196;52.302;10.572;2023-10-08T17:34:27;101566.03;;;18.09;57.69
40490;BME280;26196;52.302;10.572;2023-10-08T17:38:27;101562.13;;;18.18;58.11
40490;BME280;26196;52.302;10.572;2023-10-08T17:42:27;101574.97;;;18.07;58.47
40490;BME280;26196;52.302;10.572;2023-10-08T17:46:29;101595.25;;;18.08;57.72
40490;BME280;26196;52.302;10.572;2023-10-08T17:50:31;101578.13;;;17.95;58.54
40490;BME280;26196;52.302;10.572;2023-10-08T17:54:33;101597.88;;;18.08;59.06
40490;BME280;26196;52.302;10.572;2023-10-08T17:58:33;101572.44;;;18.04;58.21
40490;BME280;26196;52.302;10.572;2023-10-08T18:02:38;101571.75;;;17.99;59.38
40490;BME280;26196;52.302;10.572;2023-10-08T18:06:40;101590.75;;;18.10;58.71
40490;BME280;26196;52.302;10.572;2023-10-08T18:10:44;101574.59;;;18.16;57.82
40490;BME280;26196;52.302;10.572;2023-10-08T18:14:44;101561.66;;;18.08;57.97
40490;BME280;26196;52.302;10.572;2023-10-08T18:18:45;101580.00;;;18.13;57.36
40490;BME280;26196;52.302;10.572;2023-10-08T18:22:50;101569.56;;;18.10;57.11
40490;BME280;26196;52.302;10.572;2023-10-08T18:26:50;101551.19;;;18.05;56.99
40490;BME280;26196;52.302;10.572;2023-10-08T18:30:51;101561.84;;;18.04;57.00
40490;BME280;26196;52.302;10.572;2023-10-08T18:34:51;101577.81;;;18.02;56.78
40490;BME280;26196;52.302;10.572;2023-10-08T18:38:52;101557.78;;;17.95;56.41
40490;BME280;26196;52.302;10.572;2023-10-08T18:42:53;101580.16;;;18.10;55.95
40490;BME280;26196;52.302;10.572;2023-10-08T18:46:56;101568.78;;;18.06;56.29
40490;BME280;26196;52.302;10.572;2023-10-08T18:51:15;101538.66;;;18.09;55.65
40490;BME280;26196;52.302;10.572;2023-10-08T18:55:19;101531.84;;;18.03;56.25
40490;BME280;26196;52.302;10.572;2023-10-08T18:59:22;101497.53;;;18.00;56.19
40490;BME280;26196;52.302;10.572;2023-10-08T19:03:22;101476.53;;;17.96;56.29
40490;BME280;26196;52.302;10.572;2023-10-08T19:07:23;101500.19;;;18.00;56.34
40490;BME280;26196;52.302;10.572;2023-10-08T19:11:25;101492.25;;;18.00;56.93
40490;BME280;26196;52.302;10.572;2023-10-08T19:15:26;101491.25;;;18.03;56.75
40490;BME280;26196;52.302;10.572;2023-10-08T19:19:27;101511.41;;;18.07;56.97
40490;BME280;26196;52.302;10.572;2023-10-08T19:23:30;101491.19;;;18.04;58.34
40490;BME280;26196;52.302;10.572;2023-10-08T19:27:30;101471.56;;;18.08;58.06
40490;BME280;26196;52.302;10.572;2023-10-08T19:31:31;101461.06;;;18.07;58.66
40490;BME280;26196;52.302;10.572;2023-10-08T19:35:32;101486.47;;;18.11;58.68
40490;BME280;26196;52.302;10.572;2023-10-08T19:39:33;101491.91;;;18.08;58.55
40490;BME280;26196;52.302;10.572;2023-10-08T19:43:34;101499.31;;;18.00;59.04
40490;BME280;26196;52.302;10.572;2023-10-08T19:47:34;101516.75;;;18.05;58.78
40490;BME280;26196;52.302;10.572;2023-10-08T19:51:35;101488.97;;;17.93;59.31
40490;BME280;26196;52.302;10.572;2023-10-08T19:55:42;101479.84;;;18.01;59.74
40490;BME280;26196;52.302;10.572;2023-10-08T19:59:43;101464.94;;;17.98;59.15
40490;BME280;26196;52.302;10.572;2023-10-08T20:03:43;101432.31;;;17.98;59.49
40490;BME280;26196;52.302;10.572;2023-10-08T20:07:44;101454.44;;;17.97;59.12
40490;BME280;26196;52.302;10.572;2023-10-08T20:11:44;101436.81;;;17.96;59.57
40490;BME280;26196;52.302;10.572;2023-10-08T20:15:45;101443.03;;;17.95;59.43
40490;BME280;26196;52.302;10.572;2023-10-08T20:19:45;101444.88;;;17.92;59.44
40490;BME280;26196;52.302;10.572;2023-10-08T20:23:45;101423.97;;;17.86;59.20
40490;BME280;26196;52.302;10.572;2023-10-08T20:27:46;101431.78;;;17.89;59.33
40490;BME280;26196;52.302;10.572;2023-10-08T20:31:47;101393.03;;;17.87;59.30
40490;BME280;26196;52.302;10.572;2023-10-08T20:35:51;101437.88;;;17.91;59.54
40490;BME280;26196;52.302;10.572;2023-10-08T20:39:51;101453.91;;;17.88;59.66
40490;BME280;26196;52.302;10.572;2023-10-08T20:43:53;101416.06;;;17.85;59.05
40490;BME280;26196;52.302;10.572;2023-10-08T20:47:55;101405.56;;;17.83;59.08
40490;BME280;26196;52.302;10.572;2023-10-08T20:51:56;101432.09;;;17.82;58.96
40490;BME280;26196;52.302;10.572;2023-10-08T20:55:57;101420.88;;;17.75;58.85
40490;BME280;26196;52.302;10.572;2023-10-08T20:59:57;101435.19;;;17.71;59.02
40490;BME280;26196;52.302;10.572;2023-10-08T21:03:57;101406.72;;;17.76;58.47
40490;BME280;26196;52.302;10.572;2023-10-08T21:07:59;101370.44;;;17.78;58.49
40490;BME280;26196;52.302;10.572;2023-10-08T21:11:59;101376.25;;;17.66;57.82
40490;BME280;26196;52.302;10.572;2023-10-08T21:16:01;101399.09;;;17.68;58.09
40490;BME280;26196;52.302;10.572;2023-10-08T21:20:02;101392.72;;;17.72;58.02
40490;BME280;26196;52.302;10.572;2023-10-08T21:24:04;101366.19;;;17.74;58.41
40490;BME280;26196;52.302;10.572;2023-10-08T21:28:04;101338.00;;;17.73;58.30
40490;BME280;26196;52.302;10.572;2023-10-08T21:32:04;101318.81;;;17.68;58.00
40490;BME280;26196;52.302;10.572;2023-10-08T21:36:05;101331.41;;;17.63;58.00
40490;BME280;26196;52.302;10.572;2023-10-08T21:40:07;101316.22;;;17.66;58.17
40490;BME280;26196;52.302;10.572;2023-10-08T21:44:10;101305.78;;;17.63;57.68
40490;BME280;26196;52.302;10.572;2023-10-08T21:48:11;101323.38;;;17.64;57.34
40490;BME280;26196;52.302;10.572;2023-10-08T21:52:11;101317.03;;;17.68;57.73
40490;BME280;26196;52.302;10.572;2023-10-08T21:56:12;101291.94;;;17.57;57.24
40490;BME280;26196;52.302;10.572;2023-10-08T22:00:14;101304.97;;;17.61;56.92
40490;BME280;26196;52.302;10.572;2023-10-08T22:04:21;101291.03;;;17.58;57.88